»·PEaware :: N56445 KBLI-KPAE

N56445 :: KBLI-KPAE

FLIGHT INFORMATION

Flight Status: Arrived
Operator: Privately registered:
United States
More flights under this callsign
Pilot: Gary S. (41745)
Aircraft: MAULE M-6 SUPER ROCKET
(M6)
More flights by this aircraft type
Origin: KBLI Bellingham Intl
United States
Destination: KPAE Paine Field/Snohomish Co.
United States
More flights between these airports :: More routes between these airports
Route: KIENO6 CVV CVV
File this flight plan on PilotEdge
Remarks:
Altitude:
(Current/Filed)
4,000ft
Speed:
(Current/Filed)
110kts
Departed: 05-Oct-22 06:40 PM
Arrived: 05-Oct-22 07:26 PM
Distance/Time
Traveled:
0nm/0:45
Distance/Time
To Go:
Arrived

Flight Plot

Page will automatically refresh every two minutes.

Flight plan parsing failed; only flown route is shown


Map Options




Map Legend


Flown Route
Filed Route
Departure Airport
Arrival Airport
Navaid (VOR, NDB)
Fix

Horizontal Profiles

Position Reports

Time Latitude Longitude Heading Altitude Ground
Speed
05-Oct-22 18:24 48.790959 -122.535033 270 161ft 0kts
05-Oct-22 18:25 48.790959 -122.535033 270 161ft 0kts
05-Oct-22 18:26 48.790959 -122.535033 270 161ft 0kts
05-Oct-22 18:27 48.790959 -122.535033 270 161ft 0kts
05-Oct-22 18:28 48.790959 -122.535033 270 161ft 0kts
05-Oct-22 18:29 48.790959 -122.535033 270 161ft 0kts
05-Oct-22 18:30 48.790959 -122.535033 270 161ft 0kts
05-Oct-22 18:31 48.790959 -122.535033 270 161ft 0kts
05-Oct-22 18:32 48.790959 -122.535033 270 161ft 0kts
05-Oct-22 18:33 48.790959 -122.535033 270 161ft 0kts
05-Oct-22 18:34 48.790959 -122.535033 270 161ft 0kts
05-Oct-22 18:35 48.790959 -122.535033 270 161ft 0kts
05-Oct-22 18:36 48.792255 -122.535853 356 160ft 17kts
05-Oct-22 18:37 48.799204 -122.535856 0 155ft 27kts
05-Oct-22 18:38 48.801737 -122.536595 258 148ft 10kts
05-Oct-22 18:39 48.792898 -122.537736 177 407ft 70kts
05-Oct-22 18:40 48.776275 -122.553949 213 1496ft 74kts
05-Oct-22 18:41 48.759828 -122.574727 214 2498ft 78kts
05-Oct-22 18:42 48.740316 -122.582463 178 3398ft 80kts
05-Oct-22 18:43 48.718846 -122.582932 173 4056ft 80kts
05-Oct-22 18:44 48.692900 -122.582599 176 4086ft 97kts
05-Oct-22 18:45 48.665568 -122.583132 180 3987ft 96kts
05-Oct-22 18:46 48.639024 -122.586813 182 3940ft 95kts
05-Oct-22 18:47 48.612859 -122.589751 189 3901ft 94kts
05-Oct-22 18:48 48.587602 -122.598406 193 3914ft 92kts
05-Oct-22 18:49 48.563531 -122.609533 189 3973ft 91kts
05-Oct-22 18:50 48.539163 -122.619733 193 4019ft 91kts
05-Oct-22 18:51 48.514715 -122.629875 189 4043ft 91kts
05-Oct-22 18:52 48.489991 -122.637583 185 4039ft 90kts
05-Oct-22 18:53 48.465515 -122.646687 187 4020ft 91kts
05-Oct-22 18:54 48.440775 -122.654562 190 4003ft 91kts
05-Oct-22 18:55 48.416268 -122.663275 189 3986ft 91kts
05-Oct-22 18:56 48.391446 -122.669701 189 3967ft 91kts
05-Oct-22 18:57 48.367461 -122.680906 200 3963ft 91kts
05-Oct-22 18:58 48.343393 -122.691630 194 3959ft 90kts
05-Oct-22 18:59 48.318861 -122.697635 182 3949ft 89kts
05-Oct-22 19:00 48.294524 -122.705739 199 3942ft 91kts
05-Oct-22 19:01 48.270351 -122.715633 191 3935ft 90kts
05-Oct-22 19:02 48.246148 -122.725944 186 3916ft 90kts
05-Oct-22 19:03 48.235988 -122.696899 97 3906ft 90kts
05-Oct-22 19:04 48.227565 -122.664061 139 3887ft 88kts
05-Oct-22 19:05 48.217189 -122.630141 120 3881ft 90kts
05-Oct-22 19:06 48.205253 -122.597473 117 3685ft 88kts
05-Oct-22 19:07 48.194833 -122.563598 116 3326ft 89kts
05-Oct-22 19:08 48.184400 -122.529965 117 3006ft 89kts
05-Oct-22 19:09 48.173745 -122.496691 117 2984ft 88kts
05-Oct-22 19:10 48.162900 -122.463822 122 3038ft 88kts
05-Oct-22 19:11 48.152288 -122.430735 118 3046ft 88kts
05-Oct-22 19:12 48.143060 -122.396521 116 3040ft 88kts
05-Oct-22 19:13 48.132348 -122.363437 116 3035ft 88kts
05-Oct-22 19:14 48.122049 -122.330152 111 3032ft 88kts
05-Oct-22 19:15 48.109720 -122.298842 139 3008ft 87kts
05-Oct-22 19:16 48.086969 -122.290927 177 2877ft 91kts
05-Oct-22 19:17 48.062883 -122.290755 171 2463ft 88kts
05-Oct-22 19:18 48.039079 -122.290823 181 2049ft 72kts
05-Oct-22 19:19 48.021687 -122.281905 115 1899ft 77kts
05-Oct-22 19:20 48.005906 -122.282618 198 1829ft 65kts
05-Oct-22 19:21 47.988428 -122.287678 180 1882ft 65kts
05-Oct-22 19:22 47.969710 -122.287525 180 1680ft 65kts
05-Oct-22 19:23 47.950865 -122.287190 173 1198ft 69kts
05-Oct-22 19:24 47.932167 -122.286097 175 815ft 67kts
05-Oct-22 19:25 47.915743 -122.285683 166 560ft 10kts
05-Oct-22 19:30 48.790959 -122.535033 270 161ft 0kts
05-Oct-22 19:31 48.790959 -122.535033 270 161ft 0kts
05-Oct-22 19:32 48.790959 -122.535033 270 161ft 0kts
05-Oct-22 19:33 48.790959 -122.535033 270 161ft 0kts
05-Oct-22 19:34 48.790959 -122.535033 270 161ft 0kts
05-Oct-22 19:35 48.790959 -122.535033 270 161ft 0kts
05-Oct-22 19:36 48.790959 -122.535033 270 161ft 0kts
05-Oct-22 19:37 48.790959 -122.535033 270 161ft 0kts
05-Oct-22 19:38 48.790959 -122.535033 270 161ft 0kts
05-Oct-22 19:39 48.790959 -122.535033 270 161ft 0kts

Navigation Log

Ident Type
Flight plan parsing failed, navigation log unavailable